sensor_id;sensor_type;location;lat;lon;timestamp;P1;durP1;ratioP1;P2;durP2;ratioP2
63110;SDS011;49201;53.426;10.300;2022-12-18T00:02:14;30.93;;;17.30;;
63110;SDS011;49201;53.426;10.300;2022-12-18T00:04:40;30.20;;;17.07;;
63110;SDS011;49201;53.426;10.300;2022-12-18T00:07:05;32.03;;;17.83;;
63110;SDS011;49201;53.426;10.300;2022-12-18T00:09:30;32.53;;;17.33;;
63110;SDS011;49201;53.426;10.300;2022-12-18T00:11:56;31.37;;;17.57;;
63110;SDS011;49201;53.426;10.300;2022-12-18T00:14:22;32.50;;;17.90;;
63110;SDS011;49201;53.426;10.300;2022-12-18T00:16:47;29.00;;;17.03;;
63110;SDS011;49201;53.426;10.300;2022-12-18T00:19:13;28.87;;;17.33;;
63110;SDS011;49201;53.426;10.300;2022-12-18T00:21:39;30.70;;;16.57;;
63110;SDS011;49201;53.426;10.300;2022-12-18T00:24:05;30.43;;;17.20;;
63110;SDS011;49201;53.426;10.300;2022-12-18T00:26:32;29.03;;;16.03;;
63110;SDS011;49201;53.426;10.300;2022-12-18T00:29:10;26.77;;;16.87;;
63110;SDS011;49201;53.426;10.300;2022-12-18T00:31:40;33.70;;;17.67;;
63110;SDS011;49201;53.426;10.300;2022-12-18T00:34:08;45.13;;;21.00;;
63110;SDS011;49201;53.426;10.300;2022-12-18T00:36:38;38.77;;;18.93;;
63110;SDS011;49201;53.426;10.300;2022-12-18T00:39:05;30.37;;;17.03;;
63110;SDS011;49201;53.426;10.300;2022-12-18T00:41:31;27.27;;;17.17;;
63110;SDS011;49201;53.426;10.300;2022-12-18T00:44:15;29.73;;;15.50;;
63110;SDS011;49201;53.426;10.300;2022-12-18T00:46:42;28.30;;;16.30;;
63110;SDS011;49201;53.426;10.300;2022-12-18T00:49:09;33.00;;;16.63;;
63110;SDS011;49201;53.426;10.300;2022-12-18T00:51:38;28.10;;;15.50;;
63110;SDS011;49201;53.426;10.300;2022-12-18T00:54:04;26.90;;;15.03;;
63110;SDS011;49201;53.426;10.300;2022-12-18T00:56:30;35.23;;;16.77;;
63110;SDS011;49201;53.426;10.300;2022-12-18T00:58:56;32.37;;;16.30;;
63110;SDS011;49201;53.426;10.300;2022-12-18T01:01:21;30.63;;;15.97;;
63110;SDS011;49201;53.426;10.300;2022-12-18T01:03:47;29.80;;;17.10;;
63110;SDS011;49201;53.426;10.300;2022-12-18T01:06:13;31.87;;;16.17;;
63110;SDS011;49201;53.426;10.300;2022-12-18T01:08:39;28.00;;;15.33;;
63110;SDS011;49201;53.426;10.300;2022-12-18T01:11:09;29.23;;;16.57;;
63110;SDS011;49201;53.426;10.300;2022-12-18T01:13:37;29.63;;;15.73;;
63110;SDS011;49201;53.426;10.300;2022-12-18T01:16:03;26.70;;;15.93;;
63110;SDS011;49201;53.426;10.300;2022-12-18T01:18:28;29.37;;;15.17;;
63110;SDS011;49201;53.426;10.300;2022-12-18T01:20:57;27.90;;;15.83;;
63110;SDS011;49201;53.426;10.300;2022-12-18T01:23:23;31.40;;;16.73;;
63110;SDS011;49201;53.426;10.300;2022-12-18T01:25:51;29.43;;;15.03;;
63110;SDS011;49201;53.426;10.300;2022-12-18T01:28:16;28.00;;;16.00;;
63110;SDS011;49201;53.426;10.300;2022-12-18T01:30:42;25.97;;;15.13;;
63110;SDS011;49201;53.426;10.300;2022-12-18T01:33:07;26.43;;;15.50;;
63110;SDS011;49201;53.426;10.300;2022-12-18T01:35:39;30.00;;;16.30;;
63110;SDS011;49201;53.426;10.300;2022-12-18T01:38:08;29.23;;;16.30;;
63110;SDS011;49201;53.426;10.300;2022-12-18T01:40:33;31.20;;;16.10;;
63110;SDS011;49201;53.426;10.300;2022-12-18T01:42:59;25.20;;;15.37;;
63110;SDS011;49201;53.426;10.300;2022-12-18T01:45:28;24.47;;;14.77;;
63110;SDS011;49201;53.426;10.300;2022-12-18T01:48:00;26.10;;;15.33;;
63110;SDS011;49201;53.426;10.300;2022-12-18T01:50:30;28.87;;;15.50;;
63110;SDS011;49201;53.426;10.300;2022-12-18T01:52:58;25.63;;;15.10;;
63110;SDS011;49201;53.426;10.300;2022-12-18T01:55:25;26.87;;;15.50;;
63110;SDS011;49201;53.426;10.300;2022-12-18T01:57:55;25.83;;;14.93;;
63110;SDS011;49201;53.426;10.300;2022-12-18T02:00:23;26.97;;;15.20;;
63110;SDS011;49201;53.426;10.300;2022-12-18T02:02:50;28.17;;;14.67;;
63110;SDS011;49201;53.426;10.300;2022-12-18T02:05:18;24.97;;;14.80;;
63110;SDS011;49201;53.426;10.300;2022-12-18T02:08:09;26.70;;;14.57;;
63110;SDS011;49201;53.426;10.300;2022-12-18T02:10:43;27.33;;;14.60;;
63110;SDS011;49201;53.426;10.300;2022-12-18T02:19:00;26.00;;;15.00;;
63110;SDS011;49201;53.426;10.300;2022-12-18T02:22:09;29.87;;;15.43;;
63110;SDS011;49201;53.426;10.300;2022-12-18T02:24:51;23.90;;;14.53;;
63110;SDS011;49201;53.426;10.300;2022-12-18T02:27:32;25.00;;;14.63;;
63110;SDS011;49201;53.426;10.300;2022-12-18T02:30:01;21.27;;;13.97;;
63110;SDS011;49201;53.426;10.300;2022-12-18T02:32:31;23.77;;;13.63;;
63110;SDS011;49201;53.426;10.300;2022-12-18T02:35:02;28.03;;;14.20;;
63110;SDS011;49201;53.426;10.300;2022-12-18T02:37:31;24.87;;;14.53;;
63110;SDS011;49201;53.426;10.300;2022-12-18T02:40:01;23.40;;;13.87;;
63110;SDS011;49201;53.426;10.300;2022-12-18T02:42:30;24.27;;;14.60;;
63110;SDS011;49201;53.426;10.300;2022-12-18T02:44:56;23.10;;;13.53;;
63110;SDS011;49201;53.426;10.300;2022-12-18T02:47:24;27.53;;;13.70;;
63110;SDS011;49201;53.426;10.300;2022-12-18T02:50:09;22.60;;;13.50;;
63110;SDS011;49201;53.426;10.300;2022-12-18T03:06:59;25.03;;;15.20;;
63110;SDS011;49201;53.426;10.300;2022-12-18T03:09:41;27.73;;;15.10;;
63110;SDS011;49201;53.426;10.300;2022-12-18T03:15:04;26.10;;;14.13;;
63110;SDS011;49201;53.426;10.300;2022-12-18T03:17:36;22.63;;;14.80;;
63110;SDS011;49201;53.426;10.300;2022-12-18T03:20:07;27.00;;;14.83;;
63110;SDS011;49201;53.426;10.300;2022-12-18T03:22:37;28.30;;;16.00;;
63110;SDS011;49201;53.426;10.300;2022-12-18T03:25:04;28.47;;;15.40;;
63110;SDS011;49201;53.426;10.300;2022-12-18T03:27:34;29.13;;;14.83;;
63110;SDS011;49201;53.426;10.300;2022-12-18T03:30:08;30.03;;;14.83;;
63110;SDS011;49201;53.426;10.300;2022-12-18T03:32:47;27.17;;;14.57;;
63110;SDS011;49201;53.426;10.300;2022-12-18T03:35:22;29.57;;;15.60;;
63110;SDS011;49201;53.426;10.300;2022-12-18T03:37:51;29.50;;;15.50;;
63110;SDS011;49201;53.426;10.300;2022-12-18T03:40:17;26.83;;;15.30;;
63110;SDS011;49201;53.426;10.300;2022-12-18T03:42:49;23.47;;;14.30;;
63110;SDS011;49201;53.426;10.300;2022-12-18T03:50:51;26.73;;;15.80;;
63110;SDS011;49201;53.426;10.300;2022-12-18T03:56:10;26.00;;;14.27;;
63110;SDS011;49201;53.426;10.300;2022-12-18T03:58:40;26.83;;;14.83;;
63110;SDS011;49201;53.426;10.300;2022-12-18T04:01:15;25.67;;;15.17;;
63110;SDS011;49201;53.426;10.300;2022-12-18T04:03:43;25.47;;;13.97;;
63110;SDS011;49201;53.426;10.300;2022-12-18T04:06:12;23.80;;;14.73;;
63110;SDS011;49201;53.426;10.300;2022-12-18T04:08:40;25.87;;;14.30;;
63110;SDS011;49201;53.426;10.300;2022-12-18T04:11:09;24.20;;;13.83;;
63110;SDS011;49201;53.426;10.300;2022-12-18T04:13:37;27.80;;;15.43;;
63110;SDS011;49201;53.426;10.300;2022-12-18T04:16:06;26.20;;;15.53;;
63110;SDS011;49201;53.426;10.300;2022-12-18T04:18:33;27.07;;;16.07;;
63110;SDS011;49201;53.426;10.300;2022-12-18T04:21:00;27.60;;;14.77;;
63110;SDS011;49201;53.426;10.300;2022-12-18T04:23:26;31.57;;;16.80;;
63110;SDS011;49201;53.426;10.300;2022-12-18T04:25:55;25.70;;;15.43;;
63110;SDS011;49201;53.426;10.300;2022-12-18T04:28:34;29.87;;;15.70;;
63110;SDS011;49201;53.426;10.300;2022-12-18T04:31:00;30.80;;;16.93;;
63110;SDS011;49201;53.426;10.300;2022-12-18T04:33:26;33.70;;;17.23;;
63110;SDS011;49201;53.426;10.300;2022-12-18T04:35:52;28.53;;;16.53;;
63110;SDS011;49201;53.426;10.300;2022-12-18T04:38:17;31.60;;;17.07;;
63110;SDS011;49201;53.426;10.300;2022-12-18T04:40:44;30.40;;;16.50;;
63110;SDS011;49201;53.426;10.300;2022-12-18T04:43:18;31.27;;;17.67;;
63110;SDS011;49201;53.426;10.300;2022-12-18T04:45:44;33.63;;;18.17;;
63110;SDS011;49201;53.426;10.300;2022-12-18T04:48:09;30.93;;;16.97;;
63110;SDS011;49201;53.426;10.300;2022-12-18T04:50:35;31.97;;;16.97;;
63110;SDS011;49201;53.426;10.300;2022-12-18T04:53:00;29.33;;;16.70;;
63110;SDS011;49201;53.426;10.300;2022-12-18T04:55:26;34.10;;;17.63;;
63110;SDS011;49201;53.426;10.300;2022-12-18T04:57:52;34.90;;;16.90;;
63110;SDS011;49201;53.426;10.300;2022-12-18T05:00:18;27.10;;;16.57;;
63110;SDS011;49201;53.426;10.300;2022-12-18T05:02:44;28.20;;;15.53;;
63110;SDS011;49201;53.426;10.300;2022-12-18T05:05:09;32.93;;;16.53;;
63110;SDS011;49201;53.426;10.300;2022-12-18T05:07:35;25.87;;;15.87;;
63110;SDS011;49201;53.426;10.300;2022-12-18T05:10:00;30.50;;;16.03;;
63110;SDS011;49201;53.426;10.300;2022-12-18T05:12:26;30.57;;;15.23;;
63110;SDS011;49201;53.426;10.300;2022-12-18T05:14:51;27.90;;;16.50;;
63110;SDS011;49201;53.426;10.300;2022-12-18T05:17:17;31.87;;;15.40;;
63110;SDS011;49201;53.426;10.300;2022-12-18T05:19:42;35.20;;;16.57;;
63110;SDS011;49201;53.426;10.300;2022-12-18T05:22:08;28.00;;;16.40;;
63110;SDS011;49201;53.426;10.300;2022-12-18T05:24:34;29.17;;;15.50;;
63110;SDS011;49201;53.426;10.300;2022-12-18T05:27:00;26.90;;;15.73;;
63110;SDS011;49201;53.426;10.300;2022-12-18T05:29:25;31.53;;;16.63;;
63110;SDS011;49201;53.426;10.300;2022-12-18T05:31:51;28.10;;;15.40;;
63110;SDS011;49201;53.426;10.300;2022-12-18T05:34:16;29.40;;;15.90;;
63110;SDS011;49201;53.426;10.300;2022-12-18T05:36:42;31.27;;;16.43;;
63110;SDS011;49201;53.426;10.300;2022-12-18T05:39:08;28.23;;;15.17;;
63110;SDS011;49201;53.426;10.300;2022-12-18T05:41:34;33.50;;;16.63;;
63110;SDS011;49201;53.426;10.300;2022-12-18T05:44:00;31.20;;;16.47;;
63110;SDS011;49201;53.426;10.300;2022-12-18T05:46:25;38.03;;;17.10;;
63110;SDS011;49201;53.426;10.300;2022-12-18T05:48:51;35.37;;;16.53;;
63110;SDS011;49201;53.426;10.300;2022-12-18T05:51:17;35.03;;;18.53;;
63110;SDS011;49201;53.426;10.300;2022-12-18T05:53:44;29.03;;;16.03;;
63110;SDS011;49201;53.426;10.300;2022-12-18T05:56:12;33.60;;;15.83;;
63110;SDS011;49201;53.426;10.300;2022-12-18T05:58:40;32.37;;;17.07;;
63110;SDS011;49201;53.426;10.300;2022-12-18T06:01:10;27.90;;;15.50;;
63110;SDS011;49201;53.426;10.300;2022-12-18T06:03:38;33.30;;;16.00;;
63110;SDS011;49201;53.426;10.300;2022-12-18T06:06:12;33.73;;;17.77;;
63110;SDS011;49201;53.426;10.300;2022-12-18T06:08:42;31.00;;;17.07;;
63110;SDS011;49201;53.426;10.300;2022-12-18T06:11:07;34.27;;;16.83;;
63110;SDS011;49201;53.426;10.300;2022-12-18T06:13:33;30.43;;;16.20;;
63110;SDS011;49201;53.426;10.300;2022-12-18T06:16:01;32.73;;;17.47;;
63110;SDS011;49201;53.426;10.300;2022-12-18T06:18:27;29.93;;;17.13;;
63110;SDS011;49201;53.426;10.300;2022-12-18T06:20:56;34.17;;;17.50;;
63110;SDS011;49201;53.426;10.300;2022-12-18T06:23:22;31.03;;;16.93;;
63110;SDS011;49201;53.426;10.300;2022-12-18T06:25:48;29.80;;;16.83;;
63110;SDS011;49201;53.426;10.300;2022-12-18T06:28:13;35.70;;;17.50;;
63110;SDS011;49201;53.426;10.300;2022-12-18T06:30:39;36.60;;;17.53;;
63110;SDS011;49201;53.426;10.300;2022-12-18T06:33:04;35.30;;;17.30;;
63110;SDS011;49201;53.426;10.300;2022-12-18T06:35:31;35.83;;;18.90;;
63110;SDS011;49201;53.426;10.300;2022-12-18T06:37:57;34.47;;;18.00;;
63110;SDS011;49201;53.426;10.300;2022-12-18T06:40:22;32.73;;;18.37;;
63110;SDS011;49201;53.426;10.300;2022-12-18T06:42:48;34.07;;;18.17;;
63110;SDS011;49201;53.426;10.300;2022-12-18T06:45:13;35.60;;;18.50;;
63110;SDS011;49201;53.426;10.300;2022-12-18T06:47:39;32.90;;;17.73;;
63110;SDS011;49201;53.426;10.300;2022-12-18T06:50:04;36.20;;;18.53;;
63110;SDS011;49201;53.426;10.300;2022-12-18T06:52:31;33.43;;;17.70;;
63110;SDS011;49201;53.426;10.300;2022-12-18T06:54:57;34.17;;;17.83;;
63110;SDS011;49201;53.426;10.300;2022-12-18T06:57:22;34.43;;;16.53;;
63110;SDS011;49201;53.426;10.300;2022-12-18T06:59:48;35.07;;;17.40;;
63110;SDS011;49201;53.426;10.300;2022-12-18T07:02:13;32.13;;;17.60;;
63110;SDS011;49201;53.426;10.300;2022-12-18T07:04:39;36.80;;;18.50;;
63110;SDS011;49201;53.426;10.300;2022-12-18T07:07:05;31.33;;;18.17;;
63110;SDS011;49201;53.426;10.300;2022-12-18T07:09:30;34.43;;;17.13;;
63110;SDS011;49201;53.426;10.300;2022-12-18T07:11:55;30.13;;;17.63;;
63110;SDS011;49201;53.426;10.300;2022-12-18T07:14:21;34.70;;;18.23;;
63110;SDS011;49201;53.426;10.300;2022-12-18T07:16:46;36.60;;;18.00;;
63110;SDS011;49201;53.426;10.300;2022-12-18T07:19:12;34.80;;;18.43;;
63110;SDS011;49201;53.426;10.300;2022-12-18T07:21:37;35.33;;;18.17;;
63110;SDS011;49201;53.426;10.300;2022-12-18T07:24:03;36.67;;;17.83;;
63110;SDS011;49201;53.426;10.300;2022-12-18T07:26:29;34.27;;;18.23;;
63110;SDS011;49201;53.426;10.300;2022-12-18T07:28:55;36.43;;;19.67;;
63110;SDS011;49201;53.426;10.300;2022-12-18T07:31:22;39.27;;;18.73;;
63110;SDS011;49201;53.426;10.300;2022-12-18T07:33:49;37.93;;;19.10;;
63110;SDS011;49201;53.426;10.300;2022-12-18T07:36:15;35.63;;;18.43;;
63110;SDS011;49201;53.426;10.300;2022-12-18T07:38:41;38.10;;;19.37;;
63110;SDS011;49201;53.426;10.300;2022-12-18T07:41:07;38.00;;;18.60;;
63110;SDS011;49201;53.426;10.300;2022-12-18T07:43:35;35.03;;;18.33;;
63110;SDS011;49201;53.426;10.300;2022-12-18T07:46:01;36.70;;;19.03;;
63110;SDS011;49201;53.426;10.300;2022-12-18T07:48:28;35.90;;;17.73;;
63110;SDS011;49201;53.426;10.300;2022-12-18T07:50:57;36.97;;;17.90;;
63110;SDS011;49201;53.426;10.300;2022-12-18T07:53:26;35.87;;;17.63;;
63110;SDS011;49201;53.426;10.300;2022-12-18T07:55:58;40.87;;;19.60;;
63110;SDS011;49201;53.426;10.300;2022-12-18T07:58:25;41.20;;;18.73;;
63110;SDS011;49201;53.426;10.300;2022-12-18T08:00:51;41.53;;;19.13;;
63110;SDS011;49201;53.426;10.300;2022-12-18T08:03:17;38.10;;;18.13;;
63110;SDS011;49201;53.426;10.300;2022-12-18T08:05:43;36.93;;;19.00;;
63110;SDS011;49201;53.426;10.300;2022-12-18T08:08:09;37.90;;;18.13;;
63110;SDS011;49201;53.426;10.300;2022-12-18T08:10:34;41.00;;;19.47;;
63110;SDS011;49201;53.426;10.300;2022-12-18T08:12:59;34.90;;;17.80;;
63110;SDS011;49201;53.426;10.300;2022-12-18T08:15:25;38.37;;;19.10;;
63110;SDS011;49201;53.426;10.300;2022-12-18T08:17:50;40.73;;;18.93;;
63110;SDS011;49201;53.426;10.300;2022-12-18T08:20:16;38.87;;;18.77;;
63110;SDS011;49201;53.426;10.300;2022-12-18T08:22:43;41.93;;;19.30;;
63110;SDS011;49201;53.426;10.300;2022-12-18T08:25:09;48.83;;;22.57;;
63110;SDS011;49201;53.426;10.300;2022-12-18T08:27:35;43.10;;;20.13;;
63110;SDS011;49201;53.426;10.300;2022-12-18T08:30:02;36.07;;;18.33;;
63110;SDS011;49201;53.426;10.300;2022-12-18T08:32:28;35.93;;;19.03;;
63110;SDS011;49201;53.426;10.300;2022-12-18T08:34:54;35.73;;;17.57;;
63110;SDS011;49201;53.426;10.300;2022-12-18T08:37:19;39.93;;;19.53;;
63110;SDS011;49201;53.426;10.300;2022-12-18T08:39:45;37.57;;;17.83;;
63110;SDS011;49201;53.426;10.300;2022-12-18T08:42:10;45.10;;;20.83;;
63110;SDS011;49201;53.426;10.300;2022-12-18T08:44:54;45.57;;;24.03;;
63110;SDS011;49201;53.426;10.300;2022-12-18T08:47:20;50.50;;;25.57;;
63110;SDS011;49201;53.426;10.300;2022-12-18T08:49:45;40.93;;;20.97;;
63110;SDS011;49201;53.426;10.300;2022-12-18T08:52:11;40.97;;;21.17;;
63110;SDS011;49201;53.426;10.300;2022-12-18T08:54:39;44.57;;;20.50;;
63110;SDS011;49201;53.426;10.300;2022-12-18T08:57:04;39.67;;;19.23;;
63110;SDS011;49201;53.426;10.300;2022-12-18T08:59:30;34.87;;;18.10;;
63110;SDS011;49201;53.426;10.300;2022-12-18T09:01:55;39.17;;;19.27;;
63110;SDS011;49201;53.426;10.300;2022-12-18T09:04:21;39.20;;;19.33;;
63110;SDS011;49201;53.426;10.300;2022-12-18T09:06:47;37.80;;;18.17;;
63110;SDS011;49201;53.426;10.300;2022-12-18T09:09:13;39.97;;;20.07;;
63110;SDS011;49201;53.426;10.300;2022-12-18T09:11:38;37.37;;;18.93;;
63110;SDS011;49201;53.426;10.300;2022-12-18T09:14:04;39.53;;;19.10;;
63110;SDS011;49201;53.426;10.300;2022-12-18T09:16:29;47.07;;;18.60;;
63110;SDS011;49201;53.426;10.300;2022-12-18T09:18:56;38.03;;;18.87;;
63110;SDS011;49201;53.426;10.300;2022-12-18T09:21:26;42.93;;;22.10;;
63110;SDS011;49201;53.426;10.300;2022-12-18T09:23:54;39.70;;;19.50;;
63110;SDS011;49201;53.426;10.300;2022-12-18T09:26:21;37.10;;;19.43;;
63110;SDS011;49201;53.426;10.300;2022-12-18T09:28:48;38.40;;;20.57;;
63110;SDS011;49201;53.426;10.300;2022-12-18T09:31:14;41.60;;;19.03;;
63110;SDS011;49201;53.426;10.300;2022-12-18T09:33:40;38.07;;;19.50;;
63110;SDS011;49201;53.426;10.300;2022-12-18T09:36:07;36.00;;;18.23;;
63110;SDS011;49201;53.426;10.300;2022-12-18T09:38:34;35.73;;;17.83;;
63110;SDS011;49201;53.426;10.300;2022-12-18T09:41:03;41.00;;;18.67;;
63110;SDS011;49201;53.426;10.300;2022-12-18T09:43:49;39.83;;;18.73;;
63110;SDS011;49201;53.426;10.300;2022-12-18T09:46:23;32.93;;;17.67;;
63110;SDS011;49201;53.426;10.300;2022-12-18T09:48:52;36.30;;;19.60;;
63110;SDS011;49201;53.426;10.300;2022-12-18T09:51:25;42.47;;;22.57;;
63110;SDS011;49201;53.426;10.300;2022-12-18T09:53:55;44.73;;;20.73;;
63110;SDS011;49201;53.426;10.300;2022-12-18T09:56:24;39.97;;;19.73;;
63110;SDS011;49201;53.426;10.300;2022-12-18T09:58:55;44.13;;;21.80;;
63110;SDS011;49201;53.426;10.300;2022-12-18T10:01:24;40.47;;;20.53;;
63110;SDS011;49201;53.426;10.300;2022-12-18T10:03:50;39.37;;;18.73;;
63110;SDS011;49201;53.426;10.300;2022-12-18T10:09:33;34.57;;;17.83;;
63110;SDS011;49201;53.426;10.300;2022-12-18T10:14:57;34.67;;;18.43;;
63110;SDS011;49201;53.426;10.300;2022-12-18T10:17:51;32.83;;;18.07;;
63110;SDS011;49201;53.426;10.300;2022-12-18T10:20:31;35.77;;;18.43;;
63110;SDS011;49201;53.426;10.300;2022-12-18T10:25:53;38.40;;;18.77;;
63110;SDS011;49201;53.426;10.300;2022-12-18T10:28:26;36.07;;;19.17;;
63110;SDS011;49201;53.426;10.300;2022-12-18T10:30:54;31.57;;;17.10;;
63110;SDS011;49201;53.426;10.300;2022-12-18T10:33:20;32.27;;;17.00;;
63110;SDS011;49201;53.426;10.300;2022-12-18T10:35:51;31.63;;;17.50;;
63110;SDS011;49201;53.426;10.300;2022-12-18T10:43:30;32.27;;;17.50;;
63110;SDS011;49201;53.426;10.300;2022-12-18T10:48:33;29.83;;;17.30;;
63110;SDS011;49201;53.426;10.300;2022-12-18T10:51:01;34.97;;;18.07;;
63110;SDS011;49201;53.426;10.300;2022-12-18T10:53:29;28.97;;;16.73;;
63110;SDS011;49201;53.426;10.300;2022-12-18T10:55:57;28.57;;;16.53;;
63110;SDS011;49201;53.426;10.300;2022-12-18T11:03:39;31.37;;;17.20;;
63110;SDS011;49201;53.426;10.300;2022-12-18T11:06:23;28.27;;;16.63;;
63110;SDS011;49201;53.426;10.300;2022-12-18T11:09:08;29.43;;;17.23;;
63110;SDS011;49201;53.426;10.300;2022-12-18T11:11:57;27.03;;;16.33;;
63110;SDS011;49201;53.426;10.300;2022-12-18T11:16:52;25.43;;;15.10;;
63110;SDS011;49201;53.426;10.300;2022-12-18T11:21:50;27.03;;;15.83;;
63110;SDS011;49201;53.426;10.300;2022-12-18T11:24:20;24.03;;;15.67;;
63110;SDS011;49201;53.426;10.300;2022-12-18T11:26:55;24.37;;;14.80;;
63110;SDS011;49201;53.426;10.300;2022-12-18T11:29:23;27.13;;;16.10;;
63110;SDS011;49201;53.426;10.300;2022-12-18T11:32:08;24.30;;;15.73;;
63110;SDS011;49201;53.426;10.300;2022-12-18T11:34:41;25.07;;;14.90;;
63110;SDS011;49201;53.426;10.300;2022-12-18T11:37:11;24.63;;;14.73;;
63110;SDS011;49201;53.426;10.300;2022-12-18T11:40:14;25.53;;;14.90;;
63110;SDS011;49201;53.426;10.300;2022-12-18T11:42:39;27.30;;;15.13;;
63110;SDS011;49201;53.426;10.300;2022-12-18T11:47:57;29.10;;;16.80;;
63110;SDS011;49201;53.426;10.300;2022-12-18T11:50:24;29.10;;;15.80;;
63110;SDS011;49201;53.426;10.300;2022-12-18T11:52:54;26.30;;;15.03;;
63110;SDS011;49201;53.426;10.300;2022-12-18T11:55:32;24.40;;;14.40;;
63110;SDS011;49201;53.426;10.300;2022-12-18T11:58:19;28.03;;;15.83;;
63110;SDS011;49201;53.426;10.300;2022-12-18T12:06:23;26.47;;;15.83;;
63110;SDS011;49201;53.426;10.300;2022-12-18T12:30:20;28.73;;;15.17;;
63110;SDS011;49201;53.426;10.300;2022-12-18T12:32:57;29.67;;;15.43;;
63110;SDS011;49201;53.426;10.300;2022-12-18T12:38:11;31.10;;;15.37;;
63110;SDS011;49201;53.426;10.300;2022-12-18T12:40:43;30.63;;;14.93;;
63110;SDS011;49201;53.426;10.300;2022-12-18T12:45:49;28.33;;;13.90;;
63110;SDS011;49201;53.426;10.300;2022-12-18T12:48:36;30.53;;;14.87;;
63110;SDS011;49201;53.426;10.300;2022-12-18T12:51:11;24.50;;;13.10;;
63110;SDS011;49201;53.426;10.300;2022-12-18T12:53:41;30.43;;;15.57;;
63110;SDS011;49201;53.426;10.300;2022-12-18T12:56:07;29.53;;;14.43;;
63110;SDS011;49201;53.426;10.300;2022-12-18T12:58:38;26.73;;;14.10;;
63110;SDS011;49201;53.426;10.300;2022-12-18T13:03:56;31.53;;;14.83;;
63110;SDS011;49201;53.426;10.300;2022-12-18T13:09:14;29.27;;;14.33;;
63110;SDS011;49201;53.426;10.300;2022-12-18T13:19:48;28.63;;;14.53;;
63110;SDS011;49201;53.426;10.300;2022-12-18T13:22:22;29.60;;;14.63;;
63110;SDS011;49201;53.426;10.300;2022-12-18T13:24:53;30.67;;;14.23;;
63110;SDS011;49201;53.426;10.300;2022-12-18T13:30:41;30.77;;;14.83;;
63110;SDS011;49201;53.426;10.300;2022-12-18T13:35:40;32.90;;;14.73;;
63110;SDS011;49201;53.426;10.300;2022-12-18T13:45:44;36.20;;;16.80;;
63110;SDS011;49201;53.426;10.300;2022-12-18T13:48:33;32.70;;;15.57;;
63110;SDS011;49201;53.426;10.300;2022-12-18T13:51:05;34.63;;;16.13;;
63110;SDS011;49201;53.426;10.300;2022-12-18T13:53:35;31.00;;;16.23;;
63110;SDS011;49201;53.426;10.300;2022-12-18T13:56:04;33.53;;;16.57;;
63110;SDS011;49201;53.426;10.300;2022-12-18T13:58:31;34.50;;;16.07;;
63110;SDS011;49201;53.426;10.300;2022-12-18T14:00:56;34.90;;;16.23;;
63110;SDS011;49201;53.426;10.300;2022-12-18T14:03:25;37.20;;;16.77;;
63110;SDS011;49201;53.426;10.300;2022-12-18T14:05:56;34.43;;;16.53;;
63110;SDS011;49201;53.426;10.300;2022-12-18T14:08:25;31.97;;;16.40;;
63110;SDS011;49201;53.426;10.300;2022-12-18T14:10:57;34.33;;;16.50;;
63110;SDS011;49201;53.426;10.300;2022-12-18T14:13:30;38.53;;;16.77;;
63110;SDS011;49201;53.426;10.300;2022-12-18T14:16:00;37.00;;;16.63;;
63110;SDS011;49201;53.426;10.300;2022-12-18T14:18:33;40.37;;;17.73;;
63110;SDS011;49201;53.426;10.300;2022-12-18T14:21:06;38.53;;;17.43;;
63110;SDS011;49201;53.426;10.300;2022-12-18T14:23:41;41.03;;;17.33;;
63110;SDS011;49201;53.426;10.300;2022-12-18T14:26:27;36.67;;;16.13;;
63110;SDS011;49201;53.426;10.300;2022-12-18T14:28:57;38.53;;;17.93;;
63110;SDS011;49201;53.426;10.300;2022-12-18T14:31:42;37.03;;;18.00;;
63110;SDS011;49201;53.426;10.300;2022-12-18T14:34:13;35.37;;;17.23;;
63110;SDS011;49201;53.426;10.300;2022-12-18T14:36:40;38.90;;;17.40;;
63110;SDS011;49201;53.426;10.300;2022-12-18T14:39:13;38.60;;;17.63;;
63110;SDS011;49201;53.426;10.300;2022-12-18T14:41:42;38.50;;;17.73;;
63110;SDS011;49201;53.426;10.300;2022-12-18T14:44:10;39.73;;;17.13;;
63110;SDS011;49201;53.426;10.300;2022-12-18T14:46:44;36.50;;;16.90;;
63110;SDS011;49201;53.426;10.300;2022-12-18T14:49:27;40.97;;;16.97;;
63110;SDS011;49201;53.426;10.300;2022-12-18T14:51:56;40.03;;;17.53;;
63110;SDS011;49201;53.426;10.300;2022-12-18T14:54:27;37.37;;;17.47;;
63110;SDS011;49201;53.426;10.300;2022-12-18T14:57:14;34.07;;;16.07;;
63110;SDS011;49201;53.426;10.300;2022-12-18T14:59:47;36.77;;;17.70;;
63110;SDS011;49201;53.426;10.300;2022-12-18T15:02:16;37.97;;;19.53;;
63110;SDS011;49201;53.426;10.300;2022-12-18T15:04:46;40.47;;;20.07;;
63110;SDS011;49201;53.426;10.300;2022-12-18T15:10:01;47.20;;;20.93;;
63110;SDS011;49201;53.426;10.300;2022-12-18T15:13:17;52.60;;;23.67;;
63110;SDS011;49201;53.426;10.300;2022-12-18T15:18:11;46.20;;;21.13;;
63110;SDS011;49201;53.426;10.300;2022-12-18T15:23:17;46.17;;;21.33;;
63110;SDS011;49201;53.426;10.300;2022-12-18T15:25:43;46.33;;;20.27;;
63110;SDS011;49201;53.426;10.300;2022-12-18T15:28:23;49.97;;;20.83;;
63110;SDS011;49201;53.426;10.300;2022-12-18T15:31:01;44.40;;;20.73;;
63110;SDS011;49201;53.426;10.300;2022-12-18T15:33:31;45.73;;;20.67;;
63110;SDS011;49201;53.426;10.300;2022-12-18T15:36:01;44.47;;;20.47;;
63110;SDS011;49201;53.426;10.300;2022-12-18T15:38:29;54.70;;;20.50;;
63110;SDS011;49201;53.426;10.300;2022-12-18T15:40:55;44.13;;;19.47;;
63110;SDS011;49201;53.426;10.300;2022-12-18T15:43:21;46.90;;;18.90;;
63110;SDS011;49201;53.426;10.300;2022-12-18T15:46:00;47.60;;;20.53;;
63110;SDS011;49201;53.426;10.300;2022-12-18T15:48:31;43.33;;;19.27;;
63110;SDS011;49201;53.426;10.300;2022-12-18T15:50:58;42.20;;;19.00;;
63110;SDS011;49201;53.426;10.300;2022-12-18T15:53:25;43.13;;;20.23;;
63110;SDS011;49201;53.426;10.300;2022-12-18T15:55:54;45.27;;;20.20;;
63110;SDS011;49201;53.426;10.300;2022-12-18T15:58:38;38.53;;;18.13;;
63110;SDS011;49201;53.426;10.300;2022-12-18T16:01:03;48.23;;;19.93;;
63110;SDS011;49201;53.426;10.300;2022-12-18T16:03:29;39.43;;;17.57;;
63110;SDS011;49201;53.426;10.300;2022-12-18T16:05:55;45.53;;;19.40;;
63110;SDS011;49201;53.426;10.300;2022-12-18T16:08:20;42.30;;;20.20;;
63110;SDS011;49201;53.426;10.300;2022-12-18T16:10:46;44.60;;;20.10;;
63110;SDS011;49201;53.426;10.300;2022-12-18T16:13:20;41.97;;;18.67;;
63110;SDS011;49201;53.426;10.300;2022-12-18T16:15:45;48.17;;;19.27;;
63110;SDS011;49201;53.426;10.300;2022-12-18T16:18:11;42.50;;;20.33;;
63110;SDS011;49201;53.426;10.300;2022-12-18T16:20:36;49.13;;;20.40;;
63110;SDS011;49201;53.426;10.300;2022-12-18T16:23:03;42.80;;;19.50;;
63110;SDS011;49201;53.426;10.300;2022-12-18T16:25:29;40.97;;;19.90;;
63110;SDS011;49201;53.426;10.300;2022-12-18T16:27:54;42.80;;;19.43;;
63110;SDS011;49201;53.426;10.300;2022-12-18T16:30:22;47.23;;;21.53;;